sim
Sign-in with your pilot id or email,
or register
Callsign
Passwort

Schedule Details

Flight Number: OEO4195
Departure: Istanbul Ataturk International Airport (LTBA) at 11:15
Arrival: Bremen Airport (EDDW) at 14:35

Weather Information
Getting current METAR information for LTBA 101720Z 06017KT 030V090 9999 FEW035 25/16 Q1016 NOSIG RMK RWY17 05018KT 010V070 RWY05 06020KT RWY23 06019KT
Getting current METAR information for EDDW 101750Z 29006KT 9999 FEW022 15/10 Q1016 NOSIG

Schedule Frequency

Route Map